sensor_id;sensor_type;location;lat;lon;timestamp;P1;durP1;ratioP1;P2;durP2;ratioP2
17595;SDS011;8916;47.086;15.920;2023-02-01T00:01:44;22.60;;;9.00;;
17595;SDS011;8916;47.086;15.920;2023-02-01T00:04:13;18.65;;;7.50;;
17595;SDS011;8916;47.086;15.920;2023-02-01T00:06:42;21.88;;;9.57;;
17595;SDS011;8916;47.086;15.920;2023-02-01T00:09:11;17.02;;;8.10;;
17595;SDS011;8916;47.086;15.920;2023-02-01T00:11:40;26.70;;;8.90;;
17595;SDS011;8916;47.086;15.920;2023-02-01T00:14:09;22.60;;;8.68;;
17595;SDS011;8916;47.086;15.920;2023-02-01T00:16:40;23.15;;;8.07;;
17595;SDS011;8916;47.086;15.920;2023-02-01T00:19:10;19.20;;;7.97;;
17595;SDS011;8916;47.086;15.920;2023-02-01T00:21:41;26.23;;;8.48;;
17595;SDS011;8916;47.086;15.920;2023-02-01T00:24:11;19.30;;;7.85;;
17595;SDS011;8916;47.086;15.920;2023-02-01T00:26:41;19.38;;;8.15;;
17595;SDS011;8916;47.086;15.920;2023-02-01T00:29:13;20.27;;;7.93;;
17595;SDS011;8916;47.086;15.920;2023-02-01T00:31:45;16.55;;;6.85;;
17595;SDS011;8916;47.086;15.920;2023-02-01T00:34:15;16.98;;;6.80;;
17595;SDS011;8916;47.086;15.920;2023-02-01T00:36:45;16.38;;;6.93;;
17595;SDS011;8916;47.086;15.920;2023-02-01T00:39:15;21.67;;;7.78;;
17595;SDS011;8916;47.086;15.920;2023-02-01T00:41:44;15.20;;;6.88;;
17595;SDS011;8916;47.086;15.920;2023-02-01T00:44:14;17.88;;;6.68;;
17595;SDS011;8916;47.086;15.920;2023-02-01T00:46:45;14.68;;;6.43;;
17595;SDS011;8916;47.086;15.920;2023-02-01T00:49:14;17.70;;;7.68;;
17595;SDS011;8916;47.086;15.920;2023-02-01T00:51:43;20.88;;;8.20;;
17595;SDS011;8916;47.086;15.920;2023-02-01T00:54:15;20.33;;;8.50;;
17595;SDS011;8916;47.086;15.920;2023-02-01T00:56:45;21.40;;;9.05;;
17595;SDS011;8916;47.086;15.920;2023-02-01T00:59:14;19.83;;;9.13;;
17595;SDS011;8916;47.086;15.920;2023-02-01T01:01:43;20.98;;;9.20;;
17595;SDS011;8916;47.086;15.920;2023-02-01T01:04:13;19.85;;;8.20;;
17595;SDS011;8916;47.086;15.920;2023-02-01T01:06:42;20.40;;;8.60;;
17595;SDS011;8916;47.086;15.920;2023-02-01T01:09:11;21.00;;;8.15;;
17595;SDS011;8916;47.086;15.920;2023-02-01T01:11:40;20.08;;;8.05;;
17595;SDS011;8916;47.086;15.920;2023-02-01T01:14:09;21.85;;;8.70;;
17595;SDS011;8916;47.086;15.920;2023-02-01T01:16:39;22.80;;;8.35;;
17595;SDS011;8916;47.086;15.920;2023-02-01T01:19:08;20.52;;;8.43;;
17595;SDS011;8916;47.086;15.920;2023-02-01T01:21:38;17.63;;;7.80;;
17595;SDS011;8916;47.086;15.920;2023-02-01T01:24:08;20.92;;;8.02;;
17595;SDS011;8916;47.086;15.920;2023-02-01T01:26:37;19.80;;;8.73;;
17595;SDS011;8916;47.086;15.920;2023-02-01T01:29:06;21.70;;;7.43;;
17595;SDS011;8916;47.086;15.920;2023-02-01T01:31:37;21.40;;;8.10;;
17595;SDS011;8916;47.086;15.920;2023-02-01T01:34:07;23.05;;;8.65;;
17595;SDS011;8916;47.086;15.920;2023-02-01T01:36:38;22.23;;;9.20;;
17595;SDS011;8916;47.086;15.920;2023-02-01T01:39:07;24.88;;;10.13;;
17595;SDS011;8916;47.086;15.920;2023-02-01T01:41:36;22.83;;;8.85;;
17595;SDS011;8916;47.086;15.920;2023-02-01T01:47:26;31.10;;;10.15;;
17595;SDS011;8916;47.086;15.920;2023-02-01T01:50:01;18.85;;;7.72;;
17595;SDS011;8916;47.086;15.920;2023-02-01T01:52:33;18.40;;;7.68;;
17595;SDS011;8916;47.086;15.920;2023-02-01T01:55:05;26.02;;;9.80;;
17595;SDS011;8916;47.086;15.920;2023-02-01T01:57:36;21.80;;;8.23;;
17595;SDS011;8916;47.086;15.920;2023-02-01T02:00:11;26.00;;;9.00;;
17595;SDS011;8916;47.086;15.920;2023-02-01T02:02:44;24.42;;;9.30;;
17595;SDS011;8916;47.086;15.920;2023-02-01T02:05:19;15.45;;;6.68;;
17595;SDS011;8916;47.086;15.920;2023-02-01T02:07:53;12.57;;;5.72;;
17595;SDS011;8916;47.086;15.920;2023-02-01T02:10:27;17.83;;;5.93;;
17595;SDS011;8916;47.086;15.920;2023-02-01T02:13:11;17.25;;;7.18;;
17595;SDS011;8916;47.086;15.920;2023-02-01T02:15:43;26.70;;;8.90;;
17595;SDS011;8916;47.086;15.920;2023-02-01T02:18:24;15.60;;;6.38;;
17595;SDS011;8916;47.086;15.920;2023-02-01T02:21:08;13.70;;;5.93;;
17595;SDS011;8916;47.086;15.920;2023-02-01T02:23:49;14.70;;;5.90;;
17595;SDS011;8916;47.086;15.920;2023-02-01T02:36:10;17.80;;;6.90;;
17595;SDS011;8916;47.086;15.920;2023-02-01T02:38:49;15.93;;;5.90;;
17595;SDS011;8916;47.086;15.920;2023-02-01T02:41:30;13.77;;;6.15;;
17595;SDS011;8916;47.086;15.920;2023-02-01T02:44:34;13.52;;;5.18;;
17595;SDS011;8916;47.086;15.920;2023-02-01T02:47:33;16.67;;;5.90;;
17595;SDS011;8916;47.086;15.920;2023-02-01T02:50:17;20.00;;;6.95;;
17595;SDS011;8916;47.086;15.920;2023-02-01T02:53:13;18.25;;;6.00;;
17595;SDS011;8916;47.086;15.920;2023-02-01T02:56:05;16.17;;;5.85;;
17595;SDS011;8916;47.086;15.920;2023-02-01T02:58:55;18.17;;;6.15;;
17595;SDS011;8916;47.086;15.920;2023-02-01T03:01:47;18.95;;;7.88;;
17595;SDS011;8916;47.086;15.920;2023-02-01T03:04:35;14.32;;;6.25;;
17595;SDS011;8916;47.086;15.920;2023-02-01T03:07:13;18.23;;;6.78;;
17595;SDS011;8916;47.086;15.920;2023-02-01T03:10:05;19.77;;;7.43;;
17595;SDS011;8916;47.086;15.920;2023-02-01T03:12:40;15.68;;;7.43;;
17595;SDS011;8916;47.086;15.920;2023-02-01T03:15:31;18.50;;;7.18;;
17595;SDS011;8916;47.086;15.920;2023-02-01T03:18:05;15.75;;;6.70;;
17595;SDS011;8916;47.086;15.920;2023-02-01T03:20:42;18.23;;;7.03;;
17595;SDS011;8916;47.086;15.920;2023-02-01T03:23:16;21.65;;;8.18;;
17595;SDS011;8916;47.086;15.920;2023-02-01T03:25:51;25.23;;;9.07;;
17595;SDS011;8916;47.086;15.920;2023-02-01T03:28:23;22.95;;;9.10;;
17595;SDS011;8916;47.086;15.920;2023-02-01T03:30:54;30.02;;;9.25;;
17595;SDS011;8916;47.086;15.920;2023-02-01T03:33:25;27.38;;;9.93;;
17595;SDS011;8916;47.086;15.920;2023-02-01T03:36:09;26.85;;;9.57;;
17595;SDS011;8916;47.086;15.920;2023-02-01T03:38:50;23.50;;;9.45;;
17595;SDS011;8916;47.086;15.920;2023-02-01T03:44:06;27.20;;;10.00;;
17595;SDS011;8916;47.086;15.920;2023-02-01T03:46:43;33.78;;;9.95;;
17595;SDS011;8916;47.086;15.920;2023-02-01T03:49:18;27.75;;;10.25;;
17595;SDS011;8916;47.086;15.920;2023-02-01T03:51:53;28.08;;;10.23;;
17595;SDS011;8916;47.086;15.920;2023-02-01T03:54:25;29.42;;;9.35;;
17595;SDS011;8916;47.086;15.920;2023-02-01T03:56:59;30.25;;;10.25;;
17595;SDS011;8916;47.086;15.920;2023-02-01T03:59:31;28.52;;;9.85;;
17595;SDS011;8916;47.086;15.920;2023-02-01T04:02:00;23.20;;;9.05;;
17595;SDS011;8916;47.086;15.920;2023-02-01T04:04:29;23.35;;;8.95;;
17595;SDS011;8916;47.086;15.920;2023-02-01T04:06:59;19.60;;;8.20;;
17595;SDS011;8916;47.086;15.920;2023-02-01T04:09:28;23.30;;;9.15;;
17595;SDS011;8916;47.086;15.920;2023-02-01T04:11:59;26.45;;;10.00;;
17595;SDS011;8916;47.086;15.920;2023-02-01T04:14:29;23.02;;;8.82;;
17595;SDS011;8916;47.086;15.920;2023-02-01T04:16:58;28.65;;;10.27;;
17595;SDS011;8916;47.086;15.920;2023-02-01T04:19:27;24.35;;;9.50;;
17595;SDS011;8916;47.086;15.920;2023-02-01T04:21:56;25.67;;;9.43;;
17595;SDS011;8916;47.086;15.920;2023-02-01T04:24:25;25.23;;;9.43;;
17595;SDS011;8916;47.086;15.920;2023-02-01T04:26:55;28.73;;;11.30;;
17595;SDS011;8916;47.086;15.920;2023-02-01T04:29:25;21.60;;;10.35;;
17595;SDS011;8916;47.086;15.920;2023-02-01T04:31:54;26.70;;;11.05;;
17595;SDS011;8916;47.086;15.920;2023-02-01T04:34:23;27.48;;;10.73;;
17595;SDS011;8916;47.086;15.920;2023-02-01T04:36:53;31.08;;;10.80;;
17595;SDS011;8916;47.086;15.920;2023-02-01T04:39:22;24.30;;;10.20;;
17595;SDS011;8916;47.086;15.920;2023-02-01T04:41:51;30.00;;;11.77;;
17595;SDS011;8916;47.086;15.920;2023-02-01T04:44:21;26.13;;;13.10;;
17595;SDS011;8916;47.086;15.920;2023-02-01T04:46:51;32.80;;;14.20;;
17595;SDS011;8916;47.086;15.920;2023-02-01T04:49:20;34.67;;;13.48;;
17595;SDS011;8916;47.086;15.920;2023-02-01T04:51:50;38.83;;;16.45;;
17595;SDS011;8916;47.086;15.920;2023-02-01T04:54:19;48.35;;;21.08;;
17595;SDS011;8916;47.086;15.920;2023-02-01T04:56:48;27.08;;;14.02;;
17595;SDS011;8916;47.086;15.920;2023-02-01T04:59:17;32.13;;;14.15;;
17595;SDS011;8916;47.086;15.920;2023-02-01T05:01:46;30.02;;;12.32;;
17595;SDS011;8916;47.086;15.920;2023-02-01T05:04:17;28.92;;;12.15;;
17595;SDS011;8916;47.086;15.920;2023-02-01T05:06:46;28.50;;;12.63;;
17595;SDS011;8916;47.086;15.920;2023-02-01T05:09:15;164.10;;;35.70;;
17595;SDS011;8916;47.086;15.920;2023-02-01T05:11:44;96.15;;;24.55;;
17595;SDS011;8916;47.086;15.920;2023-02-01T05:14:31;85.40;;;21.85;;
17595;SDS011;8916;47.086;15.920;2023-02-01T05:17:00;73.55;;;18.33;;
17595;SDS011;8916;47.086;15.920;2023-02-01T05:19:30;60.30;;;15.63;;
17595;SDS011;8916;47.086;15.920;2023-02-01T05:21:59;48.65;;;13.90;;
17595;SDS011;8916;47.086;15.920;2023-02-01T05:24:28;44.65;;;14.73;;
17595;SDS011;8916;47.086;15.920;2023-02-01T05:26:57;46.72;;;13.95;;
17595;SDS011;8916;47.086;15.920;2023-02-01T05:29:27;47.00;;;13.88;;
17595;SDS011;8916;47.086;15.920;2023-02-01T05:31:56;45.55;;;15.15;;
17595;SDS011;8916;47.086;15.920;2023-02-01T05:34:39;44.28;;;14.00;;
17595;SDS011;8916;47.086;15.920;2023-02-01T05:37:08;38.50;;;13.98;;
17595;SDS011;8916;47.086;15.920;2023-02-01T05:39:37;37.50;;;11.85;;
17595;SDS011;8916;47.086;15.920;2023-02-01T05:42:06;40.60;;;12.40;;
17595;SDS011;8916;47.086;15.920;2023-02-01T05:44:35;36.17;;;11.90;;
17595;SDS011;8916;47.086;15.920;2023-02-01T05:47:04;32.67;;;10.38;;
17595;SDS011;8916;47.086;15.920;2023-02-01T05:49:33;31.83;;;11.43;;
17595;SDS011;8916;47.086;15.920;2023-02-01T05:52:04;33.40;;;11.63;;
17595;SDS011;8916;47.086;15.920;2023-02-01T05:54:33;23.55;;;10.50;;
17595;SDS011;8916;47.086;15.920;2023-02-01T05:57:02;29.95;;;11.77;;
17595;SDS011;8916;47.086;15.920;2023-02-01T05:59:32;25.92;;;11.60;;
17595;SDS011;8916;47.086;15.920;2023-02-01T06:02:01;32.53;;;16.30;;
17595;SDS011;8916;47.086;15.920;2023-02-01T06:04:30;38.10;;;18.45;;
17595;SDS011;8916;47.086;15.920;2023-02-01T06:06:59;30.73;;;13.15;;
17595;SDS011;8916;47.086;15.920;2023-02-01T06:09:29;28.02;;;13.75;;
17595;SDS011;8916;47.086;15.920;2023-02-01T06:11:59;30.67;;;15.30;;
17595;SDS011;8916;47.086;15.920;2023-02-01T06:14:28;37.75;;;16.85;;
17595;SDS011;8916;47.086;15.920;2023-02-01T06:16:57;30.77;;;15.13;;
17595;SDS011;8916;47.086;15.920;2023-02-01T06:19:26;28.95;;;13.90;;
17595;SDS011;8916;47.086;15.920;2023-02-01T06:21:55;35.10;;;18.27;;
17595;SDS011;8916;47.086;15.920;2023-02-01T06:24:24;45.10;;;24.20;;
17595;SDS011;8916;47.086;15.920;2023-02-01T06:26:55;48.40;;;23.73;;
17595;SDS011;8916;47.086;15.920;2023-02-01T06:29:24;45.60;;;24.60;;
17595;SDS011;8916;47.086;15.920;2023-02-01T06:31:53;43.17;;;22.25;;
17595;SDS011;8916;47.086;15.920;2023-02-01T06:34:22;51.67;;;22.77;;
17595;SDS011;8916;47.086;15.920;2023-02-01T06:36:52;30.60;;;15.30;;
17595;SDS011;8916;47.086;15.920;2023-02-01T06:39:22;33.47;;;14.38;;
17595;SDS011;8916;47.086;15.920;2023-02-01T06:41:51;29.15;;;13.77;;
17595;SDS011;8916;47.086;15.920;2023-02-01T06:44:21;36.60;;;16.30;;
17595;SDS011;8916;47.086;15.920;2023-02-01T06:46:50;33.30;;;13.55;;
17595;SDS011;8916;47.086;15.920;2023-02-01T06:49:19;32.58;;;12.60;;
17595;SDS011;8916;47.086;15.920;2023-02-01T06:51:49;32.42;;;12.88;;
17595;SDS011;8916;47.086;15.920;2023-02-01T06:54:18;27.08;;;11.15;;
17595;SDS011;8916;47.086;15.920;2023-02-01T06:56:47;27.00;;;10.10;;
17595;SDS011;8916;47.086;15.920;2023-02-01T06:59:16;29.83;;;10.00;;
17595;SDS011;8916;47.086;15.920;2023-02-01T07:01:47;23.65;;;9.35;;
17595;SDS011;8916;47.086;15.920;2023-02-01T07:04:16;28.77;;;9.88;;
17595;SDS011;8916;47.086;15.920;2023-02-01T07:06:45;25.65;;;10.35;;
17595;SDS011;8916;47.086;15.920;2023-02-01T07:09:14;29.20;;;10.52;;
17595;SDS011;8916;47.086;15.920;2023-02-01T07:11:43;24.38;;;11.88;;
17595;SDS011;8916;47.086;15.920;2023-02-01T07:14:12;28.08;;;9.48;;
17595;SDS011;8916;47.086;15.920;2023-02-01T07:16:41;26.02;;;10.40;;
17595;SDS011;8916;47.086;15.920;2023-02-01T07:19:12;23.45;;;10.60;;
17595;SDS011;8916;47.086;15.920;2023-02-01T07:21:41;26.77;;;9.45;;
17595;SDS011;8916;47.086;15.920;2023-02-01T07:24:10;18.00;;;6.07;;
17595;SDS011;8916;47.086;15.920;2023-02-01T07:26:39;21.95;;;8.40;;
17595;SDS011;8916;47.086;15.920;2023-02-01T07:29:09;19.75;;;8.70;;
17595;SDS011;8916;47.086;15.920;2023-02-01T07:31:38;25.55;;;8.18;;
17595;SDS011;8916;47.086;15.920;2023-02-01T07:34:07;24.08;;;8.82;;
17595;SDS011;8916;47.086;15.920;2023-02-01T07:36:37;17.63;;;8.07;;
17595;SDS011;8916;47.086;15.920;2023-02-01T07:39:06;15.23;;;6.25;;
17595;SDS011;8916;47.086;15.920;2023-02-01T07:41:36;16.00;;;6.88;;
17595;SDS011;8916;47.086;15.920;2023-02-01T07:44:05;13.40;;;6.68;;
17595;SDS011;8916;47.086;15.920;2023-02-01T07:46:34;17.33;;;8.18;;
17595;SDS011;8916;47.086;15.920;2023-02-01T07:49:03;18.40;;;8.20;;
17595;SDS011;8916;47.086;15.920;2023-02-01T07:51:32;19.75;;;8.98;;
17595;SDS011;8916;47.086;15.920;2023-02-01T07:54:03;20.80;;;10.55;;
17595;SDS011;8916;47.086;15.920;2023-02-01T07:56:32;22.67;;;9.27;;
17595;SDS011;8916;47.086;15.920;2023-02-01T07:59:01;20.35;;;9.15;;
17595;SDS011;8916;47.086;15.920;2023-02-01T08:01:30;18.63;;;7.60;;
17595;SDS011;8916;47.086;15.920;2023-02-01T08:03:58;20.25;;;7.55;;
17595;SDS011;8916;47.086;15.920;2023-02-01T08:06:30;20.35;;;6.97;;
17595;SDS011;8916;47.086;15.920;2023-02-01T08:09:04;12.75;;;6.00;;
17595;SDS011;8916;47.086;15.920;2023-02-01T08:11:34;21.55;;;6.68;;
17595;SDS011;8916;47.086;15.920;2023-02-01T08:14:05;14.93;;;6.63;;
17595;SDS011;8916;47.086;15.920;2023-02-01T08:16:34;13.45;;;6.43;;
17595;SDS011;8916;47.086;15.920;2023-02-01T08:19:05;19.02;;;8.05;;
17595;SDS011;8916;47.086;15.920;2023-02-01T08:21:34;22.63;;;8.98;;
17595;SDS011;8916;47.086;15.920;2023-02-01T08:24:07;13.82;;;6.43;;
17595;SDS011;8916;47.086;15.920;2023-02-01T08:26:38;12.85;;;5.28;;
17595;SDS011;8916;47.086;15.920;2023-02-01T08:29:07;18.63;;;6.07;;
17595;SDS011;8916;47.086;15.920;2023-02-01T08:31:38;17.58;;;5.88;;
17595;SDS011;8916;47.086;15.920;2023-02-01T08:34:10;12.90;;;5.68;;
17595;SDS011;8916;47.086;15.920;2023-02-01T08:36:39;14.27;;;5.28;;
17595;SDS011;8916;47.086;15.920;2023-02-01T08:39:10;11.45;;;5.28;;
17595;SDS011;8916;47.086;15.920;2023-02-01T08:41:39;14.13;;;5.55;;
17595;SDS011;8916;47.086;15.920;2023-02-01T08:44:29;13.15;;;5.07;;
17595;SDS011;8916;47.086;15.920;2023-02-01T08:46:59;14.85;;;5.45;;
17595;SDS011;8916;47.086;15.920;2023-02-01T08:49:28;13.82;;;5.47;;
17595;SDS011;8916;47.086;15.920;2023-02-01T08:51:57;11.35;;;5.40;;
17595;SDS011;8916;47.086;15.920;2023-02-01T08:54:34;17.23;;;5.43;;
17595;SDS011;8916;47.086;15.920;2023-02-01T08:57:03;13.95;;;5.65;;
17595;SDS011;8916;47.086;15.920;2023-02-01T08:59:33;12.13;;;5.65;;
17595;SDS011;8916;47.086;15.920;2023-02-01T09:02:02;11.70;;;5.38;;
17595;SDS011;8916;47.086;15.920;2023-02-01T09:04:31;14.68;;;4.60;;
17595;SDS011;8916;47.086;15.920;2023-02-01T09:07:00;9.07;;;2.78;;
17595;SDS011;8916;47.086;15.920;2023-02-01T09:09:29;7.97;;;2.67;;
17595;SDS011;8916;47.086;15.920;2023-02-01T09:11:59;5.20;;;2.70;;
17595;SDS011;8916;47.086;15.920;2023-02-01T09:14:29;9.75;;;3.05;;
17595;SDS011;8916;47.086;15.920;2023-02-01T09:16:58;10.73;;;3.05;;
17595;SDS011;8916;47.086;15.920;2023-02-01T09:19:27;8.10;;;2.45;;
17595;SDS011;8916;47.086;15.920;2023-02-01T09:21:56;3.53;;;1.60;;
17595;SDS011;8916;47.086;15.920;2023-02-01T09:24:25;1.67;;;0.70;;
17595;SDS011;8916;47.086;15.920;2023-02-01T09:26:54;1.90;;;0.63;;
17595;SDS011;8916;47.086;15.920;2023-02-01T09:29:25;1.48;;;0.50;;
17595;SDS011;8916;47.086;15.920;2023-02-01T09:31:54;0.68;;;0.38;;
17595;SDS011;8916;47.086;15.920;2023-02-01T09:34:30;2.28;;;0.50;;
17595;SDS011;8916;47.086;15.920;2023-02-01T09:36:59;2.17;;;0.50;;
17595;SDS011;8916;47.086;15.920;2023-02-01T09:39:29;1.08;;;0.57;;
17595;SDS011;8916;47.086;15.920;2023-02-01T09:42:04;0.88;;;0.55;;
17595;SDS011;8916;47.086;15.920;2023-02-01T09:44:52;0.68;;;0.40;;
17595;SDS011;8916;47.086;15.920;2023-02-01T09:47:39;0.70;;;0.40;;
17595;SDS011;8916;47.086;15.920;2023-02-01T09:50:16;0.75;;;0.52;;
17595;SDS011;8916;47.086;15.920;2023-02-01T09:52:52;1.30;;;0.40;;
17595;SDS011;8916;47.086;15.920;2023-02-01T09:55:38;1.38;;;0.60;;
17595;SDS011;8916;47.086;15.920;2023-02-01T09:58:12;2.28;;;0.50;;
17595;SDS011;8916;47.086;15.920;2023-02-01T10:00:50;1.27;;;0.60;;
17595;SDS011;8916;47.086;15.920;2023-02-01T10:03:22;1.48;;;0.77;;
17595;SDS011;8916;47.086;15.920;2023-02-01T10:06:00;0.90;;;0.50;;
17595;SDS011;8916;47.086;15.920;2023-02-01T10:08:56;1.40;;;0.60;;
17595;SDS011;8916;47.086;15.920;2023-02-01T10:11:56;2.78;;;0.47;;
17595;SDS011;8916;47.086;15.920;2023-02-01T10:14:51;1.50;;;0.60;;
17595;SDS011;8916;47.086;15.920;2023-02-01T10:17:35;0.57;;;0.40;;
17595;SDS011;8916;47.086;15.920;2023-02-01T10:20:18;0.70;;;0.40;;
17595;SDS011;8916;47.086;15.920;2023-02-01T10:22:59;0.30;;;0.20;;
17595;SDS011;8916;47.086;15.920;2023-02-01T10:26:00;0.88;;;0.70;;
17595;SDS011;8916;47.086;15.920;2023-02-01T10:28:41;0.82;;;0.50;;
17595;SDS011;8916;47.086;15.920;2023-02-01T10:31:15;1.10;;;0.60;;
17595;SDS011;8916;47.086;15.920;2023-02-01T10:33:47;1.63;;;0.50;;
17595;SDS011;8916;47.086;15.920;2023-02-01T10:36:20;0.70;;;0.55;;
17595;SDS011;8916;47.086;15.920;2023-02-01T10:38:56;0.82;;;0.50;;
17595;SDS011;8916;47.086;15.920;2023-02-01T10:41:29;1.30;;;0.73;;
17595;SDS011;8916;47.086;15.920;2023-02-01T10:44:02;1.65;;;0.90;;
17595;SDS011;8916;47.086;15.920;2023-02-01T10:46:36;2.50;;;0.82;;
17595;SDS011;8916;47.086;15.920;2023-02-01T10:49:08;1.33;;;0.80;;
17595;SDS011;8916;47.086;15.920;2023-02-01T10:51:45;1.88;;;0.90;;
17595;SDS011;8916;47.086;15.920;2023-02-01T10:54:20;4.43;;;1.83;;
17595;SDS011;8916;47.086;15.920;2023-02-01T10:57:00;3.63;;;1.20;;
17595;SDS011;8916;47.086;15.920;2023-02-01T10:59:29;1.42;;;0.88;;
17595;SDS011;8916;47.086;15.920;2023-02-01T11:02:00;2.83;;;1.48;;
17595;SDS011;8916;47.086;15.920;2023-02-01T11:04:35;1.50;;;0.68;;
17595;SDS011;8916;47.086;15.920;2023-02-01T11:07:06;0.98;;;0.47;;
17595;SDS011;8916;47.086;15.920;2023-02-01T11:09:41;1.77;;;0.38;;
17595;SDS011;8916;47.086;15.920;2023-02-01T11:12:25;0.85;;;0.47;;
17595;SDS011;8916;47.086;15.920;2023-02-01T11:14:59;0.98;;;0.60;;
17595;SDS011;8916;47.086;15.920;2023-02-01T11:17:45;0.63;;;0.40;;
17595;SDS011;8916;47.086;15.920;2023-02-01T11:20:21;1.95;;;0.90;;
17595;SDS011;8916;47.086;15.920;2023-02-01T11:23:11;4.63;;;1.45;;
17595;SDS011;8916;47.086;15.920;2023-02-01T11:25:50;2.33;;;1.20;;
17595;SDS011;8916;47.086;15.920;2023-02-01T11:28:23;4.57;;;1.20;;
17595;SDS011;8916;47.086;15.920;2023-02-01T11:30:56;3.28;;;1.33;;
17595;SDS011;8916;47.086;15.920;2023-02-01T11:33:29;1.90;;;1.02;;
17595;SDS011;8916;47.086;15.920;2023-02-01T11:36:07;2.90;;;1.15;;
17595;SDS011;8916;47.086;15.920;2023-02-01T11:38:39;3.00;;;0.93;;
17595;SDS011;8916;47.086;15.920;2023-02-01T11:41:22;2.92;;;1.20;;
17595;SDS011;8916;47.086;15.920;2023-02-01T11:43:55;1.48;;;1.05;;
17595;SDS011;8916;47.086;15.920;2023-02-01T11:46:28;2.25;;;1.30;;
17595;SDS011;8916;47.086;15.920;2023-02-01T11:49:13;2.42;;;0.93;;
17595;SDS011;8916;47.086;15.920;2023-02-01T11:54:49;2.17;;;1.30;;
17595;SDS011;8916;47.086;15.920;2023-02-01T11:57:43;6.28;;;1.17;;
17595;SDS011;8916;47.086;15.920;2023-02-01T12:00:29;1.63;;;1.05;;
17595;SDS011;8916;47.086;15.920;2023-02-01T12:03:27;1.50;;;0.98;;
17595;SDS011;8916;47.086;15.920;2023-02-01T12:06:27;1.88;;;0.75;;
17595;SDS011;8916;47.086;15.920;2023-02-01T12:09:12;0.63;;;0.50;;
17595;SDS011;8916;47.086;15.920;2023-02-01T12:11:59;0.32;;;0.32;;
17595;SDS011;8916;47.086;15.920;2023-02-01T12:14:40;3.13;;;0.55;;
17595;SDS011;8916;47.086;15.920;2023-02-01T12:17:33;1.02;;;0.60;;
17595;SDS011;8916;47.086;15.920;2023-02-01T12:20:20;0.60;;;0.38;;
17595;SDS011;8916;47.086;15.920;2023-02-01T12:23:06;0.68;;;0.40;;
17595;SDS011;8916;47.086;15.920;2023-02-01T12:25:56;1.08;;;0.60;;
17595;SDS011;8916;47.086;15.920;2023-02-01T12:28:46;1.20;;;0.70;;
17595;SDS011;8916;47.086;15.920;2023-02-01T12:31:40;5.53;;;0.77;;
17595;SDS011;8916;47.086;15.920;2023-02-01T12:34:23;1.60;;;0.45;;
17595;SDS011;8916;47.086;15.920;2023-02-01T12:37:18;1.50;;;0.52;;
17595;SDS011;8916;47.086;15.920;2023-02-01T12:40:15;2.53;;;0.68;;
17595;SDS011;8916;47.086;15.920;2023-02-01T12:42:59;0.93;;;0.60;;
17595;SDS011;8916;47.086;15.920;2023-02-01T12:45:34;1.43;;;0.60;;
17595;SDS011;8916;47.086;15.920;2023-02-01T12:48:16;2.35;;;0.70;;
17595;SDS011;8916;47.086;15.920;2023-02-01T12:50:55;1.92;;;0.47;;
17595;SDS011;8916;47.086;15.920;2023-02-01T12:53:31;4.03;;;0.90;;
17595;SDS011;8916;47.086;15.920;2023-02-01T12:56:18;1.33;;;0.77;;
17595;SDS011;8916;47.086;15.920;2023-02-01T12:58:55;1.08;;;0.40;;
17595;SDS011;8916;47.086;15.920;2023-02-01T13:01:31;0.85;;;0.43;;
17595;SDS011;8916;47.086;15.920;2023-02-01T13:04:08;1.90;;;0.40;;
17595;SDS011;8916;47.086;15.920;2023-02-01T13:06:46;0.85;;;0.43;;
17595;SDS011;8916;47.086;15.920;2023-02-01T13:09:22;0.90;;;0.50;;
17595;SDS011;8916;47.086;15.920;2023-02-01T13:11:57;2.10;;;0.77;;
17595;SDS011;8916;47.086;15.920;2023-02-01T13:14:42;1.30;;;0.73;;
17595;SDS011;8916;47.086;15.920;2023-02-01T13:17:18;0.45;;;0.40;;
17595;SDS011;8916;47.086;15.920;2023-02-01T13:19:52;0.15;;;0.15;;
17595;SDS011;8916;47.086;15.920;2023-02-01T13:22:25;0.82;;;0.50;;
17595;SDS011;8916;47.086;15.920;2023-02-01T13:25:00;1.33;;;0.60;;
17595;SDS011;8916;47.086;15.920;2023-02-01T13:27:34;1.50;;;0.60;;
17595;SDS011;8916;47.086;15.920;2023-02-01T13:30:07;0.98;;;0.47;;
17595;SDS011;8916;47.086;15.920;2023-02-01T13:33:08;0.73;;;0.40;;
17595;SDS011;8916;47.086;15.920;2023-02-01T13:36:21;0.90;;;0.40;;
17595;SDS011;8916;47.086;15.920;2023-02-01T13:42:41;0.40;;;0.38;;
17595;SDS011;8916;47.086;15.920;2023-02-01T13:45:19;0.88;;;0.50;;
17595;SDS011;8916;47.086;15.920;2023-02-01T13:47:53;3.75;;;0.45;;
17595;SDS011;8916;47.086;15.920;2023-02-01T13:50:27;1.42;;;0.68;;
17595;SDS011;8916;47.086;15.920;2023-02-01T13:53:03;1.70;;;0.57;;
17595;SDS011;8916;47.086;15.920;2023-02-01T13:55:44;0.75;;;0.40;;
17595;SDS011;8916;47.086;15.920;2023-02-01T13:58:17;0.20;;;0.20;;
17595;SDS011;8916;47.086;15.920;2023-02-01T14:00:50;0.88;;;0.50;;
17595;SDS011;8916;47.086;15.920;2023-02-01T14:03:43;4.50;;;0.98;;
17595;SDS011;8916;47.086;15.920;2023-02-01T14:09:16;5.18;;;0.70;;
17595;SDS011;8916;47.086;15.920;2023-02-01T14:15:18;0.68;;;0.47;;
17595;SDS011;8916;47.086;15.920;2023-02-01T14:17:55;0.75;;;0.50;;
17595;SDS011;8916;47.086;15.920;2023-02-01T14:23:23;1.17;;;0.70;;
17595;SDS011;8916;47.086;15.920;2023-02-01T14:28:54;1.13;;;0.45;;
17595;SDS011;8916;47.086;15.920;2023-02-01T14:31:43;1.17;;;0.40;;
17595;SDS011;8916;47.086;15.920;2023-02-01T14:34:37;0.73;;;0.40;;
17595;SDS011;8916;47.086;15.920;2023-02-01T14:37:23;0.43;;;0.40;;
17595;SDS011;8916;47.086;15.920;2023-02-01T14:39:57;3.55;;;0.63;;
17595;SDS011;8916;47.086;15.920;2023-02-01T14:42:31;0.73;;;0.30;;
17595;SDS011;8916;47.086;15.920;2023-02-01T14:51:17;0.75;;;0.50;;
17595;SDS011;8916;47.086;15.920;2023-02-01T14:53:47;0.32;;;0.32;;
17595;SDS011;8916;47.086;15.920;2023-02-01T14:56:18;1.27;;;0.43;;
17595;SDS011;8916;47.086;15.920;2023-02-01T14:58:50;1.00;;;0.45;;
17595;SDS011;8916;47.086;15.920;2023-02-01T15:01:25;3.92;;;0.80;;
17595;SDS011;8916;47.086;15.920;2023-02-01T15:04:00;1.38;;;0.73;;
17595;SDS011;8916;47.086;15.920;2023-02-01T15:06:37;2.05;;;0.70;;
17595;SDS011;8916;47.086;15.920;2023-02-01T15:09:09;1.00;;;0.50;;
17595;SDS011;8916;47.086;15.920;2023-02-01T15:11:54;1.08;;;0.50;;
17595;SDS011;8916;47.086;15.920;2023-02-01T15:14:29;1.48;;;0.52;;
17595;SDS011;8916;47.086;15.920;2023-02-01T15:17:00;1.70;;;0.60;;
17595;SDS011;8916;47.086;15.920;2023-02-01T15:19:30;3.25;;;0.70;;
17595;SDS011;8916;47.086;15.920;2023-02-01T15:22:00;1.20;;;0.50;;
17595;SDS011;8916;47.086;15.920;2023-02-01T15:24:30;2.95;;;0.57;;
17595;SDS011;8916;47.086;15.920;2023-02-01T15:27:02;1.52;;;0.63;;
17595;SDS011;8916;47.086;15.920;2023-02-01T15:29:34;0.65;;;0.40;;
17595;SDS011;8916;47.086;15.920;2023-02-01T15:32:03;0.98;;;0.52;;
17595;SDS011;8916;47.086;15.920;2023-02-01T15:34:46;1.65;;;0.50;;
17595;SDS011;8916;47.086;15.920;2023-02-01T15:37:20;1.27;;;0.68;;
17595;SDS011;8916;47.086;15.920;2023-02-01T15:40:03;2.35;;;0.63;;
17595;SDS011;8916;47.086;15.920;2023-02-01T15:42:49;2.13;;;0.88;;
17595;SDS011;8916;47.086;15.920;2023-02-01T15:45:21;3.33;;;0.50;;
17595;SDS011;8916;47.086;15.920;2023-02-01T15:47:56;1.58;;;0.63;;
17595;SDS011;8916;47.086;15.920;2023-02-01T15:50:28;3.08;;;0.85;;
17595;SDS011;8916;47.086;15.920;2023-02-01T15:53:01;25.20;;;1.42;;
17595;SDS011;8916;47.086;15.920;2023-02-01T15:55:33;2.17;;;1.23;;
17595;SDS011;8916;47.086;15.920;2023-02-01T15:58:22;3.22;;;0.90;;
17595;SDS011;8916;47.086;15.920;2023-02-01T16:00:53;0.82;;;0.50;;
17595;SDS011;8916;47.086;15.920;2023-02-01T16:03:26;3.38;;;0.93;;